sensor_id;sensor_type;location;lat;lon;timestamp;pressure;altitude;pressure_sealevel;temperature;humidity
45253;BME280;63171;50.520;30.486;2023-04-04T00:02:23;100039.44;;;3.76;100.00
45253;BME280;63171;50.520;30.486;2023-04-04T00:03:14;100035.19;;;3.73;100.00
45253;BME280;63171;50.520;30.486;2023-04-04T00:04:03;100042.94;;;3.75;100.00
45253;BME280;63171;50.520;30.486;2023-04-04T00:04:53;100037.78;;;3.73;100.00
45253;BME280;63171;50.520;30.486;2023-04-04T00:05:45;100040.28;;;3.76;100.00
45253;BME280;63171;50.520;30.486;2023-04-04T00:06:35;100042.88;;;3.76;100.00
45253;BME280;63171;50.520;30.486;2023-04-04T00:07:24;100045.53;;;3.73;100.00
45253;BME280;63171;50.520;30.486;2023-04-04T00:08:15;100040.56;;;3.67;100.00
45253;BME280;63171;50.520;30.486;2023-04-04T00:09:05;100039.72;;;3.67;100.00
45253;BME280;63171;50.520;30.486;2023-04-04T00:09:56;100039.78;;;3.65;100.00
45253;BME280;63171;50.520;30.486;2023-04-04T00:10:45;100036.38;;;3.63;100.00
45253;BME280;63171;50.520;30.486;2023-04-04T00:11:35;100030.41;;;3.61;100.00
45253;BME280;63171;50.520;30.486;2023-04-04T00:12:24;100031.28;;;3.60;100.00
45253;BME280;63171;50.520;30.486;2023-04-04T00:13:15;100035.75;;;3.55;100.00
45253;BME280;63171;50.520;30.486;2023-04-04T00:14:04;100027.19;;;3.53;100.00
45253;BME280;63171;50.520;30.486;2023-04-04T00:14:54;100027.09;;;3.56;100.00
45253;BME280;63171;50.520;30.486;2023-04-04T00:15:44;100031.28;;;3.60;100.00
45253;BME280;63171;50.520;30.486;2023-04-04T00:16:34;100029.56;;;3.61;100.00
45253;BME280;63171;50.520;30.486;2023-04-04T00:17:24;100032.19;;;3.59;100.00
45253;BME280;63171;50.520;30.486;2023-04-04T00:18:14;100033.66;;;3.68;100.00
45253;BME280;63171;50.520;30.486;2023-04-04T00:19:04;100036.34;;;3.65;100.00
45253;BME280;63171;50.520;30.486;2023-04-04T00:19:55;100033.88;;;3.60;100.00
45253;BME280;63171;50.520;30.486;2023-04-04T00:20:47;100036.47;;;3.60;100.00
45253;BME280;63171;50.520;30.486;2023-04-04T00:21:37;100035.44;;;3.66;100.00
45253;BME280;63171;50.520;30.486;2023-04-04T00:22:27;100029.25;;;3.70;100.00
45253;BME280;63171;50.520;30.486;2023-04-04T00:23:17;100030.06;;;3.72;100.00
45253;BME280;63171;50.520;30.486;2023-04-04T00:24:07;100030.81;;;3.75;100.00
45253;BME280;63171;50.520;30.486;2023-04-04T00:24:57;100030.81;;;3.75;100.00
45253;BME280;63171;50.520;30.486;2023-04-04T00:25:50;100027.50;;;3.70;100.00
45253;BME280;63171;50.520;30.486;2023-04-04T00:26:41;100026.81;;;3.65;100.00
45253;BME280;63171;50.520;30.486;2023-04-04T00:27:31;100023.44;;;3.63;100.00
45253;BME280;63171;50.520;30.486;2023-04-04T00:28:21;100017.59;;;3.56;100.00
45253;BME280;63171;50.520;30.486;2023-04-04T00:29:11;100023.63;;;3.57;100.00
45253;BME280;63171;50.520;30.486;2023-04-04T00:30:01;100023.50;;;3.60;100.00
45253;BME280;63171;50.520;30.486;2023-04-04T00:30:51;100021.69;;;3.64;100.00
45253;BME280;63171;50.520;30.486;2023-04-04T00:31:41;100023.38;;;3.65;100.00
45253;BME280;63171;50.520;30.486;2023-04-04T00:32:31;100023.34;;;3.66;100.00
45253;BME280;63171;50.520;30.486;2023-04-04T00:33:21;100024.28;;;3.64;100.00
45253;BME280;63171;50.520;30.486;2023-04-04T00:34:11;100020.84;;;3.63;100.00
45253;BME280;63171;50.520;30.486;2023-04-04T00:35:01;100025.13;;;3.64;100.00
45253;BME280;63171;50.520;30.486;2023-04-04T00:35:52;100026.19;;;3.57;100.00
45253;BME280;63171;50.520;30.486;2023-04-04T00:36:42;100028.66;;;3.62;100.00
45253;BME280;63171;50.520;30.486;2023-04-04T00:37:33;100033.69;;;3.66;100.00
45253;BME280;63171;50.520;30.486;2023-04-04T00:38:23;100033.84;;;3.62;100.00
45253;BME280;63171;50.520;30.486;2023-04-04T00:39:14;100032.19;;;3.59;100.00
45253;BME280;63171;50.520;30.486;2023-04-04T00:40:04;100029.56;;;3.61;100.00
45253;BME280;63171;50.520;30.486;2023-04-04T00:40:54;100038.25;;;3.58;100.00
45253;BME280;63171;50.520;30.486;2023-04-04T00:41:46;100037.22;;;3.64;100.00
45253;BME280;63171;50.520;30.486;2023-04-04T00:42:38;100034.59;;;3.65;100.00
45253;BME280;63171;50.520;30.486;2023-04-04T00:43:28;100038.09;;;3.64;100.00
45253;BME280;63171;50.520;30.486;2023-04-04T00:44:18;100035.59;;;3.60;100.00
45253;BME280;63171;50.520;30.486;2023-04-04T00:45:08;100036.50;;;3.59;100.00
45253;BME280;63171;50.520;30.486;2023-04-04T00:45:59;100035.66;;;3.58;100.00
45253;BME280;63171;50.520;30.486;2023-04-04T00:46:48;100035.59;;;3.61;100.00
45253;BME280;63171;50.520;30.486;2023-04-04T00:47:40;100032.94;;;3.63;100.00
45253;BME280;63171;50.520;30.486;2023-04-04T00:48:31;100038.81;;;3.68;100.00
45253;BME280;63171;50.520;30.486;2023-04-04T00:49:22;100030.22;;;3.67;100.00
45253;BME280;63171;50.520;30.486;2023-04-04T00:50:11;100032.69;;;3.70;100.00
45253;BME280;63171;50.520;30.486;2023-04-04T00:51:03;100031.84;;;3.70;100.00
45253;BME280;63171;50.520;30.486;2023-04-04T00:51:52;100031.94;;;3.67;100.00
45253;BME280;63171;50.520;30.486;2023-04-04T00:52:43;100037.19;;;3.65;100.00
45253;BME280;63171;50.520;30.486;2023-04-04T00:53:32;100038.88;;;3.66;100.00
45253;BME280;63171;50.520;30.486;2023-04-04T00:54:23;100038.09;;;3.64;100.00
45253;BME280;63171;50.520;30.486;2023-04-04T00:55:12;100034.75;;;3.59;100.00
45253;BME280;63171;50.520;30.486;2023-04-04T00:56:03;100029.56;;;3.61;100.00
45253;BME280;63171;50.520;30.486;2023-04-04T00:56:52;100037.34;;;3.59;100.00
45253;BME280;63171;50.520;30.486;2023-04-04T00:57:43;100033.88;;;3.60;100.00
45253;BME280;63171;50.520;30.486;2023-04-04T00:58:33;100031.25;;;3.62;100.00
45253;BME280;63171;50.520;30.486;2023-04-04T00:59:24;100029.50;;;3.62;100.00
45253;BME280;63171;50.520;30.486;2023-04-04T01:00:14;100033.88;;;3.60;100.00
45253;BME280;63171;50.520;30.486;2023-04-04T01:01:23;100025.13;;;3.64;100.00
45253;BME280;63171;50.520;30.486;2023-04-04T01:02:13;100032.91;;;3.64;100.00
45253;BME280;63171;50.520;30.486;2023-04-04T01:03:04;100041.63;;;3.62;100.00
45253;BME280;63171;50.520;30.486;2023-04-04T01:03:55;100034.69;;;3.62;100.00
45253;BME280;63171;50.520;30.486;2023-04-04T01:04:45;100031.28;;;3.60;100.00
45253;BME280;63171;50.520;30.486;2023-04-04T01:05:36;100032.84;;;3.66;100.00
45253;BME280;63171;50.520;30.486;2023-04-04T01:06:29;100033.69;;;3.66;100.00
45253;BME280;63171;50.520;30.486;2023-04-04T01:07:18;100040.00;;;3.58;100.00
45253;BME280;63171;50.520;30.486;2023-04-04T01:08:09;100038.19;;;3.60;100.00
45253;BME280;63171;50.520;30.486;2023-04-04T01:08:59;100034.69;;;3.62;100.00
45253;BME280;63171;50.520;30.486;2023-04-04T01:09:49;100032.94;;;3.63;100.00
45253;BME280;63171;50.520;30.486;2023-04-04T01:10:39;100032.09;;;3.62;100.00
45253;BME280;63171;50.520;30.486;2023-04-04T01:11:30;100036.28;;;3.66;100.00
45253;BME280;63171;50.520;30.486;2023-04-04T01:12:20;100031.22;;;3.63;100.00
45253;BME280;63171;50.520;30.486;2023-04-04T01:13:11;100027.81;;;3.61;100.00
45253;BME280;63171;50.520;30.486;2023-04-04T01:14:00;100028.00;;;3.55;100.00
45253;BME280;63171;50.520;30.486;2023-04-04T01:14:50;100019.38;;;3.54;100.00
45253;BME280;63171;50.520;30.486;2023-04-04T01:15:40;100027.19;;;3.53;100.00
45253;BME280;63171;50.520;30.486;2023-04-04T01:16:30;100028.03;;;3.53;100.00
45253;BME280;63171;50.520;30.486;2023-04-04T01:17:20;100028.69;;;3.60;100.00
45253;BME280;63171;50.520;30.486;2023-04-04T01:18:12;100028.63;;;3.63;100.00
45253;BME280;63171;50.520;30.486;2023-04-04T01:19:02;100026.31;;;3.54;100.00
45253;BME280;63171;50.520;30.486;2023-04-04T01:19:56;100024.56;;;3.54;100.00
45253;BME280;63171;50.520;30.486;2023-04-04T01:20:49;100028.69;;;3.60;100.00
45253;BME280;63171;50.520;30.486;2023-04-04T01:21:43;100028.69;;;3.60;100.00
45253;BME280;63171;50.520;30.486;2023-04-04T01:22:33;100031.28;;;3.60;100.00
45253;BME280;63171;50.520;30.486;2023-04-04T01:23:24;100027.66;;;3.66;100.00
45253;BME280;63171;50.520;30.486;2023-04-04T01:24:18;100035.38;;;3.67;100.00
45253;BME280;63171;50.520;30.486;2023-04-04T01:25:24;100044.78;;;3.70;100.00
45253;BME280;63171;50.520;30.486;2023-04-04T01:26:19;100031.78;;;3.71;100.00
45253;BME280;63171;50.520;30.486;2023-04-04T01:27:10;100031.75;;;3.73;100.00
45253;BME280;63171;50.520;30.486;2023-04-04T01:28:06;100037.81;;;3.72;100.00
45253;BME280;63171;50.520;30.486;2023-04-04T01:28:57;100038.66;;;3.72;100.00
45253;BME280;63171;50.520;30.486;2023-04-04T01:29:47;100037.94;;;3.69;100.00
45253;BME280;63171;50.520;30.486;2023-04-04T01:30:39;100043.78;;;3.74;100.00
45253;BME280;63171;50.520;30.486;2023-04-04T01:31:30;100042.94;;;3.73;100.00
45253;BME280;63171;50.520;30.486;2023-04-04T01:32:26;100042.94;;;3.73;100.00
45253;BME280;63171;50.520;30.486;2023-04-04T01:33:18;100043.00;;;3.72;100.00
45253;BME280;63171;50.520;30.486;2023-04-04T01:34:11;100040.34;;;3.73;100.00
45253;BME280;63171;50.520;30.486;2023-04-04T01:35:07;100038.66;;;3.72;100.00
45253;BME280;63171;50.520;30.486;2023-04-04T01:36:02;100043.06;;;3.70;100.00
45253;BME280;63171;50.520;30.486;2023-04-04T01:36:55;100045.53;;;3.73;100.00
45253;BME280;63171;50.520;30.486;2023-04-04T01:37:48;100050.78;;;3.72;100.00
45253;BME280;63171;50.520;30.486;2023-04-04T01:38:46;100049.97;;;3.70;100.00
45253;BME280;63171;50.520;30.486;2023-04-04T01:39:38;100048.19;;;3.72;100.00
45253;BME280;63171;50.520;30.486;2023-04-04T01:40:33;100047.44;;;3.68;100.00
45253;BME280;63171;50.520;30.486;2023-04-04T01:41:26;100049.13;;;3.69;100.00
45253;BME280;63171;50.520;30.486;2023-04-04T01:42:21;100050.28;;;3.61;100.00
45253;BME280;63171;50.520;30.486;2023-04-04T01:43:11;100053.50;;;3.67;100.00
45253;BME280;63171;50.520;30.486;2023-04-04T01:44:04;100056.09;;;3.67;100.00
45253;BME280;63171;50.520;30.486;2023-04-04T01:44:54;100051.06;;;3.63;100.00
45253;BME280;63171;50.520;30.486;2023-04-04T01:45:49;100049.28;;;3.65;100.00
45253;BME280;63171;50.520;30.486;2023-04-04T01:46:40;100057.91;;;3.65;100.00
45253;BME280;63171;50.520;30.486;2023-04-04T01:47:36;100051.06;;;3.63;100.00
45253;BME280;63171;50.520;30.486;2023-04-04T01:48:26;100061.44;;;3.63;100.00
45253;BME280;63171;50.520;30.486;2023-04-04T01:49:18;100064.78;;;3.66;100.00
45253;BME280;63171;50.520;30.486;2023-04-04T01:50:08;100069.00;;;3.69;100.00
45253;BME280;63171;50.520;30.486;2023-04-04T01:51:00;100062.97;;;3.68;100.00
45253;BME280;63171;50.520;30.486;2023-04-04T01:51:50;100068.06;;;3.71;100.00
45253;BME280;63171;50.520;30.486;2023-04-04T01:52:42;100069.75;;;3.72;100.00
45253;BME280;63171;50.520;30.486;2023-04-04T01:53:32;100062.09;;;3.69;100.00
45253;BME280;63171;50.520;30.486;2023-04-04T01:54:22;100063.81;;;3.69;100.00
45253;BME280;63171;50.520;30.486;2023-04-04T01:55:12;100070.66;;;3.71;100.00
45253;BME280;63171;50.520;30.486;2023-04-04T01:56:05;100064.63;;;3.71;100.00
45253;BME280;63171;50.520;30.486;2023-04-04T01:56:57;100069.16;;;3.64;100.00
45253;BME280;63171;50.520;30.486;2023-04-04T01:57:47;100065.63;;;3.67;100.00
45253;BME280;63171;50.520;30.486;2023-04-04T01:58:37;100069.91;;;3.68;100.00
45253;BME280;63171;50.520;30.486;2023-04-04T01:59:27;100069.00;;;3.69;100.00
45253;BME280;63171;50.520;30.486;2023-04-04T02:00:17;100075.22;;;3.63;100.00
45253;BME280;63171;50.520;30.486;2023-04-04T02:01:07;100072.59;;;3.65;100.00
45253;BME280;63171;50.520;30.486;2023-04-04T02:01:57;100078.53;;;3.68;100.00
45253;BME280;63171;50.520;30.486;2023-04-04T02:02:48;100075.97;;;3.67;100.00
45253;BME280;63171;50.520;30.486;2023-04-04T02:03:37;100075.94;;;3.68;100.00
45253;BME280;63171;50.520;30.486;2023-04-04T02:04:28;100070.75;;;3.68;100.00
45253;BME280;63171;50.520;30.486;2023-04-04T02:05:18;100067.31;;;3.68;100.00
45253;BME280;63171;50.520;30.486;2023-04-04T02:06:08;100072.53;;;3.66;100.00
45253;BME280;63171;50.520;30.486;2023-04-04T02:06:59;100070.78;;;3.67;100.00
45253;BME280;63171;50.520;30.486;2023-04-04T02:07:49;100070.06;;;3.63;100.00
45253;BME280;63171;50.520;30.486;2023-04-04T02:08:58;100071.78;;;3.63;100.00
45253;BME280;63171;50.520;30.486;2023-04-04T02:09:47;100070.16;;;3.59;100.00
45253;BME280;63171;50.520;30.486;2023-04-04T02:10:38;100073.72;;;3.56;100.00
45253;BME280;63171;50.520;30.486;2023-04-04T02:11:29;100068.53;;;3.56;100.00
45253;BME280;63171;50.520;30.486;2023-04-04T02:12:19;100067.63;;;3.57;100.00
45253;BME280;63171;50.520;30.486;2023-04-04T02:13:08;100067.59;;;3.59;100.00
45253;BME280;63171;50.520;30.486;2023-04-04T02:14:00;100067.69;;;3.55;100.00
45253;BME280;63171;50.520;30.486;2023-04-04T02:14:50;100059.97;;;3.54;100.00
45253;BME280;63171;50.520;30.486;2023-04-04T02:15:40;100061.66;;;3.55;100.00
45253;BME280;63171;50.520;30.486;2023-04-04T02:16:30;100060.75;;;3.56;100.00
45253;BME280;63171;50.520;30.486;2023-04-04T02:17:21;100063.31;;;3.58;100.00
45253;BME280;63171;50.520;30.486;2023-04-04T02:18:10;100057.28;;;3.57;100.00
45253;BME280;63171;50.520;30.486;2023-04-04T02:19:01;100051.31;;;3.55;100.00
45253;BME280;63171;50.520;30.486;2023-04-04T02:19:50;100051.41;;;3.52;100.00
45253;BME280;63171;50.520;30.486;2023-04-04T02:20:41;100052.19;;;3.54;100.00
45253;BME280;63171;50.520;30.486;2023-04-04T02:21:30;100052.16;;;3.55;100.00
45253;BME280;63171;50.520;30.486;2023-04-04T02:22:20;100053.75;;;3.60;100.00
45253;BME280;63171;50.520;30.486;2023-04-04T02:23:10;100051.06;;;3.63;100.00
45253;BME280;63171;50.520;30.486;2023-04-04T02:24:00;100054.69;;;3.57;100.00
45253;BME280;63171;50.520;30.486;2023-04-04T02:24:50;100052.09;;;3.57;100.00
45253;BME280;63171;50.520;30.486;2023-04-04T02:25:42;100046.91;;;3.57;100.00
45253;BME280;63171;50.520;30.486;2023-04-04T02:26:33;100057.19;;;3.60;100.00
45253;BME280;63171;50.520;30.486;2023-04-04T02:27:23;100055.31;;;3.65;100.00
45253;BME280;63171;50.520;30.486;2023-04-04T02:28:13;100055.25;;;3.67;100.00
45253;BME280;63171;50.520;30.486;2023-04-04T02:29:04;100056.22;;;3.64;100.00
45253;BME280;63171;50.520;30.486;2023-04-04T02:29:53;100052.72;;;3.65;100.00
45253;BME280;63171;50.520;30.486;2023-04-04T02:30:44;100053.41;;;3.70;100.00
45253;BME280;63171;50.520;30.486;2023-04-04T02:31:34;100057.81;;;3.68;100.00
45253;BME280;63171;50.520;30.486;2023-04-04T02:32:24;100056.91;;;3.69;100.00
45253;BME280;63171;50.520;30.486;2023-04-04T02:33:14;100047.53;;;3.65;100.00
45253;BME280;63171;50.520;30.486;2023-04-04T02:34:05;100045.31;;;3.53;100.00
45253;BME280;63171;50.520;30.486;2023-04-04T02:34:55;100049.81;;;3.48;100.00
45253;BME280;63171;50.520;30.486;2023-04-04T02:35:45;100047.22;;;3.48;100.00
45253;BME280;63171;50.520;30.486;2023-04-04T02:36:34;100043.00;;;3.44;100.00
45253;BME280;63171;50.520;30.486;2023-04-04T02:37:26;100038.03;;;3.38;100.00
45253;BME280;63171;50.520;30.486;2023-04-04T02:38:18;100039.88;;;3.33;100.00
45253;BME280;63171;50.520;30.486;2023-04-04T02:39:09;100042.53;;;3.31;100.00
45253;BME280;63171;50.520;30.486;2023-04-04T02:40:01;100042.47;;;3.33;100.00
45253;BME280;63171;50.520;30.486;2023-04-04T02:40:54;100040.72;;;3.33;100.00
45253;BME280;63171;50.520;30.486;2023-04-04T02:41:45;100030.38;;;3.33;100.00
45253;BME280;63171;50.520;30.486;2023-04-04T02:42:36;100030.38;;;3.33;100.00
45253;BME280;63171;50.520;30.486;2023-04-04T02:43:25;100038.03;;;3.38;100.00
45253;BME280;63171;50.520;30.486;2023-04-04T02:44:16;100032.13;;;3.33;100.00
45253;BME280;63171;50.520;30.486;2023-04-04T02:45:06;100032.84;;;3.38;100.00
45253;BME280;63171;50.520;30.486;2023-04-04T02:45:56;100033.81;;;3.34;100.00
45253;BME280;63171;50.520;30.486;2023-04-04T02:46:47;100024.34;;;3.33;100.00
45253;BME280;63171;50.520;30.486;2023-04-04T02:47:39;100030.34;;;3.35;100.00
45253;BME280;63171;50.520;30.486;2023-04-04T02:48:29;100026.94;;;3.34;100.00
45253;BME280;63171;50.520;30.486;2023-04-04T02:49:23;100021.75;;;3.33;100.00
45253;BME280;63171;50.520;30.486;2023-04-04T02:50:13;100029.53;;;3.33;100.00
45253;BME280;63171;50.520;30.486;2023-04-04T02:51:03;100024.44;;;3.30;100.00
45253;BME280;63171;50.520;30.486;2023-04-04T02:51:54;100022.75;;;3.29;100.00
45253;BME280;63171;50.520;30.486;2023-04-04T02:52:46;100028.63;;;3.34;100.00
45253;BME280;63171;50.520;30.486;2023-04-04T02:53:37;100027.84;;;3.32;100.00
45253;BME280;63171;50.520;30.486;2023-04-04T02:54:39;100028.78;;;3.29;100.00
45253;BME280;63171;50.520;30.486;2023-04-04T02:55:30;100031.31;;;3.31;100.00
45253;BME280;63171;50.520;30.486;2023-04-04T02:56:21;100024.44;;;3.30;100.00
45253;BME280;63171;50.520;30.486;2023-04-04T02:57:12;100036.66;;;3.26;100.00
45253;BME280;63171;50.520;30.486;2023-04-04T02:58:02;100028.78;;;3.29;100.00
45253;BME280;63171;50.520;30.486;2023-04-04T02:58:52;100031.47;;;3.26;100.00
45253;BME280;63171;50.520;30.486;2023-04-04T02:59:42;100032.31;;;3.26;100.00
45253;BME280;63171;50.520;30.486;2023-04-04T03:00:32;100033.22;;;3.25;100.00
45253;BME280;63171;50.520;30.486;2023-04-04T03:01:21;100028.78;;;3.29;100.00
45253;BME280;63171;50.520;30.486;2023-04-04T03:02:12;100035.69;;;3.29;100.00
45253;BME280;63171;50.520;30.486;2023-04-04T03:03:01;100031.22;;;3.34;100.00
45253;BME280;63171;50.520;30.486;2023-04-04T03:03:55;100025.09;;;3.38;100.00
45253;BME280;63171;50.520;30.486;2023-04-04T03:04:45;100031.28;;;3.32;100.00
45253;BME280;63171;50.520;30.486;2023-04-04T03:05:36;100034.72;;;3.33;100.00
45253;BME280;63171;50.520;30.486;2023-04-04T03:06:30;100038.25;;;3.30;100.00
45253;BME280;63171;50.520;30.486;2023-04-04T03:07:20;100043.47;;;3.29;100.00
45253;BME280;63171;50.520;30.486;2023-04-04T03:08:10;100040.88;;;3.29;100.00
45253;BME280;63171;50.520;30.486;2023-04-04T03:09:01;100043.50;;;3.27;100.00
45253;BME280;63171;50.520;30.486;2023-04-04T03:09:52;100042.47;;;3.33;100.00
45253;BME280;63171;50.520;30.486;2023-04-04T03:10:43;100046.75;;;3.35;100.00
45253;BME280;63171;50.520;30.486;2023-04-04T03:11:34;100043.22;;;3.38;100.00
45253;BME280;63171;50.520;30.486;2023-04-04T03:12:25;100054.47;;;3.37;100.00
45253;BME280;63171;50.520;30.486;2023-04-04T03:13:15;100050.97;;;3.38;100.00
45253;BME280;63171;50.520;30.486;2023-04-04T03:14:05;100052.81;;;3.34;100.00
45253;BME280;63171;50.520;30.486;2023-04-04T03:14:59;100051.97;;;3.32;100.00
45253;BME280;63171;50.520;30.486;2023-04-04T03:15:50;100047.84;;;3.26;100.00
45253;BME280;63171;50.520;30.486;2023-04-04T03:16:39;100059.88;;;3.28;100.00
45253;BME280;63171;50.520;30.486;2023-04-04T03:17:30;100058.00;;;3.33;100.00
45253;BME280;63171;50.520;30.486;2023-04-04T03:18:20;100059.69;;;3.34;100.00
45253;BME280;63171;50.520;30.486;2023-04-04T03:19:10;100063.97;;;3.36;100.00
45253;BME280;63171;50.520;30.486;2023-04-04T03:19:59;100058.00;;;3.34;100.00
45253;BME280;63171;50.520;30.486;2023-04-04T03:20:49;100059.69;;;3.35;100.00
45253;BME280;63171;50.520;30.486;2023-04-04T03:21:39;100058.00;;;3.34;100.00
45253;BME280;63171;50.520;30.486;2023-04-04T03:22:29;100063.97;;;3.36;100.00
45253;BME280;63171;50.520;30.486;2023-04-04T03:23:18;100065.75;;;3.34;100.00
45253;BME280;63171;50.520;30.486;2023-04-04T03:24:09;100061.38;;;3.36;100.00
45253;BME280;63171;50.520;30.486;2023-04-04T03:24:58;100069.41;;;3.27;100.00
45253;BME280;63171;50.520;30.486;2023-04-04T03:25:48;100069.50;;;3.24;100.00
45253;BME280;63171;50.520;30.486;2023-04-04T03:26:39;100062.69;;;3.20;100.00
45253;BME280;63171;50.520;30.486;2023-04-04T03:27:32;100069.59;;;3.21;100.00
45253;BME280;63171;50.520;30.486;2023-04-04T03:28:21;100071.28;;;3.22;100.00
45253;BME280;63171;50.520;30.486;2023-04-04T03:29:11;100075.47;;;3.26;100.00
45253;BME280;63171;50.520;30.486;2023-04-04T03:30:02;100068.47;;;3.30;100.00
45253;BME280;63171;50.520;30.486;2023-04-04T03:30:55;100069.25;;;3.32;100.00
45253;BME280;63171;50.520;30.486;2023-04-04T03:31:45;100069.22;;;3.33;100.00
45253;BME280;63171;50.520;30.486;2023-04-04T03:32:35;100071.94;;;3.29;100.00
45253;BME280;63171;50.520;30.486;2023-04-04T03:33:26;100078.09;;;3.24;100.00
45253;BME280;63171;50.520;30.486;2023-04-04T03:34:15;100075.53;;;3.24;100.00
45253;BME280;63171;50.520;30.486;2023-04-04T03:35:06;100090.16;;;3.25;100.00
45253;BME280;63171;50.520;30.486;2023-04-04T03:35:56;100081.66;;;3.20;100.00
45253;BME280;63171;50.520;30.486;2023-04-04T03:36:46;100085.97;;;3.21;100.00
45253;BME280;63171;50.520;30.486;2023-04-04T03:37:36;100084.13;;;3.25;100.00
45253;BME280;63171;50.520;30.486;2023-04-04T03:38:25;100091.84;;;3.26;100.00
45253;BME280;63171;50.520;30.486;2023-04-04T03:39:16;100092.59;;;3.30;100.00
45253;BME280;63171;50.520;30.486;2023-04-04T03:40:07;100087.47;;;3.29;100.00
45253;BME280;63171;50.520;30.486;2023-04-04T03:41:00;100087.50;;;3.27;100.00
45253;BME280;63171;50.520;30.486;2023-04-04T03:41:51;100081.53;;;3.25;100.00
45253;BME280;63171;50.520;30.486;2023-04-04T03:42:42;100084.88;;;3.29;100.00
45253;BME280;63171;50.520;30.486;2023-04-04T03:43:35;100082.34;;;3.27;100.00
45253;BME280;63171;50.520;30.486;2023-04-04T03:44:25;100085.81;;;3.26;100.00
45253;BME280;63171;50.520;30.486;2023-04-04T03:45:15;100084.97;;;3.25;100.00
45253;BME280;63171;50.520;30.486;2023-04-04T03:46:05;100077.13;;;3.29;100.00
45253;BME280;63171;50.520;30.486;2023-04-04T03:46:56;100083.03;;;3.32;100.00
45253;BME280;63171;50.520;30.486;2023-04-04T03:47:46;100078.84;;;3.28;100.00
45253;BME280;63171;50.520;30.486;2023-04-04T03:48:37;100091.16;;;3.21;100.00
45253;BME280;63171;50.520;30.486;2023-04-04T03:49:29;100083.28;;;3.24;100.00
45253;BME280;63171;50.520;30.486;2023-04-04T03:50:22;100079.81;;;3.25;100.00
45253;BME280;63171;50.520;30.486;2023-04-04T03:51:21;100079.69;;;3.29;100.00
45253;BME280;63171;50.520;30.486;2023-04-04T03:52:11;100072.09;;;3.24;100.00
45253;BME280;63171;50.520;30.486;2023-04-04T03:53:00;100075.47;;;3.26;100.00
45253;BME280;63171;50.520;30.486;2023-04-04T03:54:10;100076.41;;;3.23;100.00
45253;BME280;63171;50.520;30.486;2023-04-04T03:54:59;100068.00;;;3.15;100.00
45253;BME280;63171;50.520;30.486;2023-04-04T03:55:49;100074.22;;;3.10;100.00
45253;BME280;63171;50.520;30.486;2023-04-04T03:56:39;100070.94;;;3.03;100.00
45253;BME280;63171;50.520;30.486;2023-04-04T03:57:30;100073.41;;;3.08;100.00
45253;BME280;63171;50.520;30.486;2023-04-04T03:58:22;100076.97;;;3.04;100.00
45253;BME280;63171;50.520;30.486;2023-04-04T03:59:13;100077.19;;;2.96;100.00
45253;BME280;63171;50.520;30.486;2023-04-04T04:00:03;100072.91;;;2.95;100.00
45253;BME280;63171;50.520;30.486;2023-04-04T04:01:01;100071.22;;;2.94;100.00
45253;BME280;63171;50.520;30.486;2023-04-04T04:01:53;100069.63;;;2.88;100.00
45253;BME280;63171;50.520;30.486;2023-04-04T04:02:43;100063.56;;;2.89;100.00
45253;BME280;63171;50.520;30.486;2023-04-04T04:03:33;100068.69;;;2.91;100.00
45253;BME280;63171;50.520;30.486;2023-04-04T04:04:23;100066.91;;;2.93;100.00
45253;BME280;63171;50.520;30.486;2023-04-04T04:05:12;100063.47;;;2.94;100.00
45253;BME280;63171;50.520;30.486;2023-04-04T04:06:02;100065.22;;;2.92;100.00
45253;BME280;63171;50.520;30.486;2023-04-04T04:06:53;100072.22;;;2.88;100.00
45253;BME280;63171;50.520;30.486;2023-04-04T04:07:42;100069.59;;;2.90;100.00
45253;BME280;63171;50.520;30.486;2023-04-04T04:08:33;100063.53;;;2.91;100.00
45253;BME280;63171;50.520;30.486;2023-04-04T04:09:23;100076.53;;;2.88;100.00
45253;BME280;63171;50.520;30.486;2023-04-04T04:10:13;100072.25;;;2.87;100.00
45253;BME280;63171;50.520;30.486;2023-04-04T04:11:03;100072.19;;;2.90;100.00
45253;BME280;63171;50.520;30.486;2023-04-04T04:11:55;100079.09;;;2.89;100.00
45253;BME280;63171;50.520;30.486;2023-04-04T04:12:44;100077.44;;;2.87;100.00
45253;BME280;63171;50.520;30.486;2023-04-04T04:13:37;100079.22;;;2.85;100.00
45253;BME280;63171;50.520;30.486;2023-04-04T04:14:27;100075.66;;;2.89;100.00
45253;BME280;63171;50.520;30.486;2023-04-04T04:15:17;100074.56;;;2.97;100.00
45253;BME280;63171;50.520;30.486;2023-04-04T04:16:08;100075.38;;;3.00;100.00
45253;BME280;63171;50.520;30.486;2023-04-04T04:16:59;100078.00;;;2.98;100.00
45253;BME280;63171;50.520;30.486;2023-04-04T04:17:48;100076.31;;;2.97;100.00
45253;BME280;63171;50.520;30.486;2023-04-04T04:18:38;100082.44;;;2.93;100.00
45253;BME280;63171;50.520;30.486;2023-04-04T04:19:32;100082.47;;;2.91;100.00
45253;BME280;63171;50.520;30.486;2023-04-04T04:20:23;100082.31;;;2.97;100.00
45253;BME280;63171;50.520;30.486;2023-04-04T04:21:15;100083.13;;;3.00;100.00
45253;BME280;63171;50.520;30.486;2023-04-04T04:22:06;100087.34;;;3.02;100.00
45253;BME280;63171;50.520;30.486;2023-04-04T04:22:55;100075.28;;;3.03;100.00
45253;BME280;63171;50.520;30.486;2023-04-04T04:23:46;100082.97;;;3.04;100.00
45253;BME280;63171;50.520;30.486;2023-04-04T04:24:35;100080.50;;;3.01;100.00
45253;BME280;63171;50.520;30.486;2023-04-04T04:25:27;100087.25;;;3.05;100.00